sensor_id;sensor_type;location;lat;lon;timestamp;P1;durP1;ratioP1;P2;durP2;ratioP2
75814;SDS011;64451;45.574;14.224;2023-02-23T00:00:56;14.60;;;5.85;;
75814;SDS011;64451;45.574;14.224;2023-02-23T00:02:56;16.95;;;6.55;;
75814;SDS011;64451;45.574;14.224;2023-02-23T00:05:00;13.80;;;6.25;;
75814;SDS011;64451;45.574;14.224;2023-02-23T00:07:01;12.52;;;6.20;;
75814;SDS011;64451;45.574;14.224;2023-02-23T00:09:02;17.98;;;6.78;;
75814;SDS011;64451;45.574;14.224;2023-02-23T00:11:14;13.68;;;5.63;;
75814;SDS011;64451;45.574;14.224;2023-02-23T00:13:15;11.60;;;5.70;;
75814;SDS011;64451;45.574;14.224;2023-02-23T00:15:15;15.07;;;7.22;;
75814;SDS011;64451;45.574;14.224;2023-02-23T00:17:15;16.38;;;6.25;;
75814;SDS011;64451;45.574;14.224;2023-02-23T00:19:19;17.38;;;6.15;;
75814;SDS011;64451;45.574;14.224;2023-02-23T00:21:24;13.60;;;6.10;;
75814;SDS011;64451;45.574;14.224;2023-02-23T00:23:28;16.70;;;6.78;;
75814;SDS011;64451;45.574;14.224;2023-02-23T00:25:29;15.82;;;6.50;;
75814;SDS011;64451;45.574;14.224;2023-02-23T00:27:30;15.98;;;6.25;;
75814;SDS011;64451;45.574;14.224;2023-02-23T00:29:30;12.68;;;5.35;;
75814;SDS011;64451;45.574;14.224;2023-02-23T00:31:37;18.63;;;6.75;;
75814;SDS011;64451;45.574;14.224;2023-02-23T00:33:38;10.38;;;4.65;;
75814;SDS011;64451;45.574;14.224;2023-02-23T00:35:40;11.10;;;5.53;;
75814;SDS011;64451;45.574;14.224;2023-02-23T00:37:45;9.30;;;3.97;;
75814;SDS011;64451;45.574;14.224;2023-02-23T00:39:47;12.57;;;4.43;;
75814;SDS011;64451;45.574;14.224;2023-02-23T00:41:48;10.25;;;4.75;;
75814;SDS011;64451;45.574;14.224;2023-02-23T00:43:49;11.65;;;5.65;;
75814;SDS011;64451;45.574;14.224;2023-02-23T00:45:49;11.10;;;5.60;;
75814;SDS011;64451;45.574;14.224;2023-02-23T00:47:54;8.68;;;4.70;;
75814;SDS011;64451;45.574;14.224;2023-02-23T00:49:54;12.95;;;5.40;;
75814;SDS011;64451;45.574;14.224;2023-02-23T00:51:55;10.00;;;4.80;;
75814;SDS011;64451;45.574;14.224;2023-02-23T00:53:56;12.18;;;5.43;;
75814;SDS011;64451;45.574;14.224;2023-02-23T00:55:57;14.30;;;5.72;;
75814;SDS011;64451;45.574;14.224;2023-02-23T00:57:58;11.77;;;5.30;;
75814;SDS011;64451;45.574;14.224;2023-02-23T00:59:58;10.43;;;5.32;;
75814;SDS011;64451;45.574;14.224;2023-02-23T01:01:59;7.82;;;4.72;;
75814;SDS011;64451;45.574;14.224;2023-02-23T01:04:00;11.85;;;6.15;;
75814;SDS011;64451;45.574;14.224;2023-02-23T01:06:02;11.60;;;5.10;;
75814;SDS011;64451;45.574;14.224;2023-02-23T01:08:05;15.38;;;5.53;;
75814;SDS011;64451;45.574;14.224;2023-02-23T01:10:08;9.23;;;4.63;;
75814;SDS011;64451;45.574;14.224;2023-02-23T01:12:18;10.57;;;5.35;;
75814;SDS011;64451;45.574;14.224;2023-02-23T01:14:18;13.73;;;5.75;;
75814;SDS011;64451;45.574;14.224;2023-02-23T01:16:21;14.90;;;5.80;;
75814;SDS011;64451;45.574;14.224;2023-02-23T01:18:26;11.95;;;5.90;;
75814;SDS011;64451;45.574;14.224;2023-02-23T01:20:27;15.93;;;5.60;;
75814;SDS011;64451;45.574;14.224;2023-02-23T01:22:27;14.25;;;5.97;;
75814;SDS011;64451;45.574;14.224;2023-02-23T01:24:27;12.40;;;5.80;;
75814;SDS011;64451;45.574;14.224;2023-02-23T01:26:29;12.70;;;6.97;;
75814;SDS011;64451;45.574;14.224;2023-02-23T01:28:32;12.27;;;6.15;;
75814;SDS011;64451;45.574;14.224;2023-02-23T01:30:33;15.30;;;6.75;;
75814;SDS011;64451;45.574;14.224;2023-02-23T01:32:34;16.30;;;6.82;;
75814;SDS011;64451;45.574;14.224;2023-02-23T01:34:36;15.23;;;6.63;;
75814;SDS011;64451;45.574;14.224;2023-02-23T01:36:37;13.50;;;6.57;;
75814;SDS011;64451;45.574;14.224;2023-02-23T01:38:38;16.75;;;6.43;;
75814;SDS011;64451;45.574;14.224;2023-02-23T01:40:41;15.77;;;7.18;;
75814;SDS011;64451;45.574;14.224;2023-02-23T01:42:44;25.13;;;7.22;;
75814;SDS011;64451;45.574;14.224;2023-02-23T01:46:46;15.40;;;6.82;;
75814;SDS011;64451;45.574;14.224;2023-02-23T01:48:49;12.82;;;5.38;;
75814;SDS011;64451;45.574;14.224;2023-02-23T01:50:53;14.07;;;6.38;;
75814;SDS011;64451;45.574;14.224;2023-02-23T01:53:02;9.90;;;5.63;;
75814;SDS011;64451;45.574;14.224;2023-02-23T01:55:03;12.93;;;6.30;;
75814;SDS011;64451;45.574;14.224;2023-02-23T01:57:05;12.70;;;7.45;;
75814;SDS011;64451;45.574;14.224;2023-02-23T02:03:13;12.82;;;5.65;;
75814;SDS011;64451;45.574;14.224;2023-02-23T02:05:19;12.57;;;5.88;;
75814;SDS011;64451;45.574;14.224;2023-02-23T02:07:23;13.40;;;5.72;;
75814;SDS011;64451;45.574;14.224;2023-02-23T02:09:27;12.82;;;5.78;;
75814;SDS011;64451;45.574;14.224;2023-02-23T02:11:27;13.60;;;6.30;;
75814;SDS011;64451;45.574;14.224;2023-02-23T02:13:35;13.32;;;6.25;;
75814;SDS011;64451;45.574;14.224;2023-02-23T02:15:38;11.00;;;4.93;;
75814;SDS011;64451;45.574;14.224;2023-02-23T02:37:00;14.00;;;7.00;;
75814;SDS011;64451;45.574;14.224;2023-02-23T02:43:56;14.43;;;7.65;;
75814;SDS011;64451;45.574;14.224;2023-02-23T02:46:25;18.23;;;7.80;;
75814;SDS011;64451;45.574;14.224;2023-02-23T02:48:49;18.08;;;8.18;;
75814;SDS011;64451;45.574;14.224;2023-02-23T02:51:03;16.85;;;7.47;;
75814;SDS011;64451;45.574;14.224;2023-02-23T02:53:12;15.18;;;7.38;;
75814;SDS011;64451;45.574;14.224;2023-02-23T02:55:26;14.70;;;7.45;;
75814;SDS011;64451;45.574;14.224;2023-02-23T02:57:33;17.50;;;7.93;;
75814;SDS011;64451;45.574;14.224;2023-02-23T02:59:56;16.08;;;8.05;;
75814;SDS011;64451;45.574;14.224;2023-02-23T03:02:12;13.35;;;6.63;;
75814;SDS011;64451;45.574;14.224;2023-02-23T03:04:34;11.30;;;6.43;;
75814;SDS011;64451;45.574;14.224;2023-02-23T03:06:59;18.25;;;8.07;;
75814;SDS011;64451;45.574;14.224;2023-02-23T03:12:06;18.35;;;6.80;;
75814;SDS011;64451;45.574;14.224;2023-02-23T03:14:32;16.00;;;7.85;;
75814;SDS011;64451;45.574;14.224;2023-02-23T03:19:45;18.70;;;7.13;;
75814;SDS011;64451;45.574;14.224;2023-02-23T03:24:49;15.90;;;6.68;;
75814;SDS011;64451;45.574;14.224;2023-02-23T03:29:49;16.02;;;6.60;;
75814;SDS011;64451;45.574;14.224;2023-02-23T03:34:53;16.20;;;7.00;;
75814;SDS011;64451;45.574;14.224;2023-02-23T03:42:39;13.45;;;7.57;;
75814;SDS011;64451;45.574;14.224;2023-02-23T03:45:03;17.98;;;7.72;;
75814;SDS011;64451;45.574;14.224;2023-02-23T03:47:26;15.70;;;6.78;;
75814;SDS011;64451;45.574;14.224;2023-02-23T03:49:49;14.45;;;7.28;;
75814;SDS011;64451;45.574;14.224;2023-02-23T03:52:10;16.38;;;7.25;;
75814;SDS011;64451;45.574;14.224;2023-02-23T03:54:35;13.57;;;6.00;;
75814;SDS011;64451;45.574;14.224;2023-02-23T03:57:03;15.18;;;7.05;;
75814;SDS011;64451;45.574;14.224;2023-02-23T03:59:28;11.75;;;6.30;;
75814;SDS011;64451;45.574;14.224;2023-02-23T04:01:52;14.85;;;7.07;;
75814;SDS011;64451;45.574;14.224;2023-02-23T04:04:13;17.00;;;6.93;;
75814;SDS011;64451;45.574;14.224;2023-02-23T04:06:33;14.73;;;6.68;;
75814;SDS011;64451;45.574;14.224;2023-02-23T04:08:58;13.55;;;6.13;;
75814;SDS011;64451;45.574;14.224;2023-02-23T04:13:47;14.43;;;6.78;;
75814;SDS011;64451;45.574;14.224;2023-02-23T04:15:52;16.25;;;7.28;;
75814;SDS011;64451;45.574;14.224;2023-02-23T04:17:55;19.70;;;7.65;;
75814;SDS011;64451;45.574;14.224;2023-02-23T04:19:56;18.13;;;6.97;;
75814;SDS011;64451;45.574;14.224;2023-02-23T04:21:56;19.77;;;6.25;;
75814;SDS011;64451;45.574;14.224;2023-02-23T04:23:56;17.60;;;6.93;;
75814;SDS011;64451;45.574;14.224;2023-02-23T04:25:57;16.08;;;6.88;;
75814;SDS011;64451;45.574;14.224;2023-02-23T04:27:58;13.05;;;6.25;;
75814;SDS011;64451;45.574;14.224;2023-02-23T04:29:58;13.93;;;6.68;;
75814;SDS011;64451;45.574;14.224;2023-02-23T04:31:58;14.60;;;7.55;;
75814;SDS011;64451;45.574;14.224;2023-02-23T04:33:59;18.98;;;8.50;;
75814;SDS011;64451;45.574;14.224;2023-02-23T04:35:59;17.13;;;7.95;;
75814;SDS011;64451;45.574;14.224;2023-02-23T04:37:59;16.92;;;7.75;;
75814;SDS011;64451;45.574;14.224;2023-02-23T04:40:00;13.63;;;6.32;;
75814;SDS011;64451;45.574;14.224;2023-02-23T04:42:00;17.30;;;8.20;;
75814;SDS011;64451;45.574;14.224;2023-02-23T04:44:01;14.27;;;7.43;;
75814;SDS011;64451;45.574;14.224;2023-02-23T04:46:01;14.65;;;7.10;;
75814;SDS011;64451;45.574;14.224;2023-02-23T04:48:02;13.90;;;6.88;;
75814;SDS011;64451;45.574;14.224;2023-02-23T04:50:02;12.55;;;6.70;;
75814;SDS011;64451;45.574;14.224;2023-02-23T04:52:03;14.88;;;7.63;;
75814;SDS011;64451;45.574;14.224;2023-02-23T04:54:04;14.70;;;8.45;;
75814;SDS011;64451;45.574;14.224;2023-02-23T04:56:05;13.48;;;6.88;;
75814;SDS011;64451;45.574;14.224;2023-02-23T04:58:05;16.65;;;7.82;;
75814;SDS011;64451;45.574;14.224;2023-02-23T05:00:07;15.48;;;6.72;;
75814;SDS011;64451;45.574;14.224;2023-02-23T05:02:08;17.13;;;7.53;;
75814;SDS011;64451;45.574;14.224;2023-02-23T05:04:08;13.85;;;6.97;;
75814;SDS011;64451;45.574;14.224;2023-02-23T05:06:09;14.98;;;7.65;;
75814;SDS011;64451;45.574;14.224;2023-02-23T05:08:10;19.50;;;9.05;;
75814;SDS011;64451;45.574;14.224;2023-02-23T05:10:11;15.38;;;6.28;;
75814;SDS011;64451;45.574;14.224;2023-02-23T05:12:11;16.00;;;8.80;;
75814;SDS011;64451;45.574;14.224;2023-02-23T05:14:11;14.15;;;6.65;;
75814;SDS011;64451;45.574;14.224;2023-02-23T05:16:12;18.23;;;7.97;;
75814;SDS011;64451;45.574;14.224;2023-02-23T05:18:12;15.60;;;6.13;;
75814;SDS011;64451;45.574;14.224;2023-02-23T05:20:12;14.05;;;6.30;;
75814;SDS011;64451;45.574;14.224;2023-02-23T05:22:13;11.60;;;5.85;;
75814;SDS011;64451;45.574;14.224;2023-02-23T05:24:14;13.95;;;6.35;;
75814;SDS011;64451;45.574;14.224;2023-02-23T05:26:16;17.90;;;6.68;;
75814;SDS011;64451;45.574;14.224;2023-02-23T05:28:17;14.68;;;6.53;;
75814;SDS011;64451;45.574;14.224;2023-02-23T05:30:18;12.70;;;6.47;;
75814;SDS011;64451;45.574;14.224;2023-02-23T05:32:18;19.80;;;7.80;;
75814;SDS011;64451;45.574;14.224;2023-02-23T05:34:18;12.27;;;7.50;;
75814;SDS011;64451;45.574;14.224;2023-02-23T05:36:19;18.65;;;6.75;;
75814;SDS011;64451;45.574;14.224;2023-02-23T05:38:20;14.07;;;5.90;;
75814;SDS011;64451;45.574;14.224;2023-02-23T05:40:21;19.70;;;7.50;;
75814;SDS011;64451;45.574;14.224;2023-02-23T05:42:21;18.42;;;7.82;;
75814;SDS011;64451;45.574;14.224;2023-02-23T05:44:22;18.48;;;7.88;;
75814;SDS011;64451;45.574;14.224;2023-02-23T05:46:24;15.38;;;6.63;;
75814;SDS011;64451;45.574;14.224;2023-02-23T05:48:25;15.57;;;7.53;;
75814;SDS011;64451;45.574;14.224;2023-02-23T05:50:26;13.85;;;7.13;;
75814;SDS011;64451;45.574;14.224;2023-02-23T05:52:26;16.27;;;7.68;;
75814;SDS011;64451;45.574;14.224;2023-02-23T05:54:27;17.73;;;7.93;;
75814;SDS011;64451;45.574;14.224;2023-02-23T05:56:27;30.30;;;8.23;;
75814;SDS011;64451;45.574;14.224;2023-02-23T05:58:27;14.35;;;6.75;;
75814;SDS011;64451;45.574;14.224;2023-02-23T06:00:28;16.55;;;7.30;;
75814;SDS011;64451;45.574;14.224;2023-02-23T06:02:28;17.88;;;8.00;;
75814;SDS011;64451;45.574;14.224;2023-02-23T06:04:28;14.95;;;7.68;;
75814;SDS011;64451;45.574;14.224;2023-02-23T06:06:29;14.48;;;7.60;;
75814;SDS011;64451;45.574;14.224;2023-02-23T06:08:29;17.92;;;7.72;;
75814;SDS011;64451;45.574;14.224;2023-02-23T06:10:30;19.25;;;8.48;;
75814;SDS011;64451;45.574;14.224;2023-02-23T06:12:30;14.32;;;8.13;;
75814;SDS011;64451;45.574;14.224;2023-02-23T06:14:30;21.00;;;7.68;;
75814;SDS011;64451;45.574;14.224;2023-02-23T06:16:32;15.77;;;7.35;;
75814;SDS011;64451;45.574;14.224;2023-02-23T06:18:32;15.80;;;7.20;;
75814;SDS011;64451;45.574;14.224;2023-02-23T06:20:33;18.13;;;8.75;;
75814;SDS011;64451;45.574;14.224;2023-02-23T06:22:34;17.08;;;7.55;;
75814;SDS011;64451;45.574;14.224;2023-02-23T06:24:35;19.80;;;7.88;;
75814;SDS011;64451;45.574;14.224;2023-02-23T06:26:35;14.98;;;7.38;;
75814;SDS011;64451;45.574;14.224;2023-02-23T06:28:35;17.48;;;7.85;;
75814;SDS011;64451;45.574;14.224;2023-02-23T06:30:36;17.17;;;9.82;;
75814;SDS011;64451;45.574;14.224;2023-02-23T06:32:37;22.00;;;9.63;;
75814;SDS011;64451;45.574;14.224;2023-02-23T06:34:38;20.42;;;7.35;;
75814;SDS011;64451;45.574;14.224;2023-02-23T06:36:39;15.05;;;7.55;;
75814;SDS011;64451;45.574;14.224;2023-02-23T06:38:39;14.18;;;7.40;;
75814;SDS011;64451;45.574;14.224;2023-02-23T06:40:40;16.48;;;7.47;;
75814;SDS011;64451;45.574;14.224;2023-02-23T06:42:40;19.55;;;7.88;;
75814;SDS011;64451;45.574;14.224;2023-02-23T06:44:40;16.70;;;8.35;;
75814;SDS011;64451;45.574;14.224;2023-02-23T06:46:41;15.80;;;7.82;;
75814;SDS011;64451;45.574;14.224;2023-02-23T06:48:41;16.88;;;6.97;;
75814;SDS011;64451;45.574;14.224;2023-02-23T06:50:42;15.70;;;7.57;;
75814;SDS011;64451;45.574;14.224;2023-02-23T06:52:42;20.27;;;8.88;;
75814;SDS011;64451;45.574;14.224;2023-02-23T06:56:52;17.25;;;9.02;;
75814;SDS011;64451;45.574;14.224;2023-02-23T06:58:55;20.48;;;8.52;;
75814;SDS011;64451;45.574;14.224;2023-02-23T07:00:56;16.98;;;9.45;;
75814;SDS011;64451;45.574;14.224;2023-02-23T07:02:57;18.20;;;8.30;;
75814;SDS011;64451;45.574;14.224;2023-02-23T07:04:58;17.00;;;7.38;;
75814;SDS011;64451;45.574;14.224;2023-02-23T07:06:59;20.23;;;8.23;;
75814;SDS011;64451;45.574;14.224;2023-02-23T07:08:59;17.75;;;9.50;;
75814;SDS011;64451;45.574;14.224;2023-02-23T07:11:10;17.02;;;7.75;;
75814;SDS011;64451;45.574;14.224;2023-02-23T07:13:14;15.38;;;7.65;;
75814;SDS011;64451;45.574;14.224;2023-02-23T07:15:15;17.25;;;8.05;;
75814;SDS011;64451;45.574;14.224;2023-02-23T07:17:16;18.88;;;8.05;;
75814;SDS011;64451;45.574;14.224;2023-02-23T07:19:17;21.35;;;8.30;;
75814;SDS011;64451;45.574;14.224;2023-02-23T07:21:17;17.85;;;6.85;;
75814;SDS011;64451;45.574;14.224;2023-02-23T07:23:17;17.98;;;8.40;;
75814;SDS011;64451;45.574;14.224;2023-02-23T07:25:18;17.38;;;8.38;;
75814;SDS011;64451;45.574;14.224;2023-02-23T07:27:18;14.52;;;7.63;;
75814;SDS011;64451;45.574;14.224;2023-02-23T07:29:19;14.43;;;8.23;;
75814;SDS011;64451;45.574;14.224;2023-02-23T07:31:19;17.45;;;7.90;;
75814;SDS011;64451;45.574;14.224;2023-02-23T07:33:20;19.38;;;8.50;;
75814;SDS011;64451;45.574;14.224;2023-02-23T07:35:20;22.67;;;8.05;;
75814;SDS011;64451;45.574;14.224;2023-02-23T07:37:20;15.63;;;8.13;;
75814;SDS011;64451;45.574;14.224;2023-02-23T07:39:21;16.95;;;8.60;;
75814;SDS011;64451;45.574;14.224;2023-02-23T07:41:21;14.00;;;6.82;;
75814;SDS011;64451;45.574;14.224;2023-02-23T07:43:22;18.00;;;8.20;;
75814;SDS011;64451;45.574;14.224;2023-02-23T07:45:23;15.13;;;7.55;;
75814;SDS011;64451;45.574;14.224;2023-02-23T07:47:24;17.73;;;8.07;;
75814;SDS011;64451;45.574;14.224;2023-02-23T07:49:29;17.95;;;8.32;;
75814;SDS011;64451;45.574;14.224;2023-02-23T07:51:30;15.02;;;7.00;;
75814;SDS011;64451;45.574;14.224;2023-02-23T07:53:30;20.65;;;8.07;;
75814;SDS011;64451;45.574;14.224;2023-02-23T07:55:30;17.20;;;8.30;;
75814;SDS011;64451;45.574;14.224;2023-02-23T07:57:31;18.63;;;9.18;;
75814;SDS011;64451;45.574;14.224;2023-02-23T07:59:32;18.52;;;7.93;;
75814;SDS011;64451;45.574;14.224;2023-02-23T08:01:32;18.02;;;7.65;;
75814;SDS011;64451;45.574;14.224;2023-02-23T08:03:32;21.13;;;9.50;;
75814;SDS011;64451;45.574;14.224;2023-02-23T08:05:33;17.38;;;8.43;;
75814;SDS011;64451;45.574;14.224;2023-02-23T08:07:34;17.48;;;8.75;;
75814;SDS011;64451;45.574;14.224;2023-02-23T08:09:35;17.55;;;8.55;;
75814;SDS011;64451;45.574;14.224;2023-02-23T08:11:36;21.08;;;8.90;;
75814;SDS011;64451;45.574;14.224;2023-02-23T08:13:36;18.10;;;8.73;;
75814;SDS011;64451;45.574;14.224;2023-02-23T08:15:36;17.73;;;8.32;;
75814;SDS011;64451;45.574;14.224;2023-02-23T08:17:37;16.35;;;7.80;;
75814;SDS011;64451;45.574;14.224;2023-02-23T08:19:38;17.95;;;8.10;;
75814;SDS011;64451;45.574;14.224;2023-02-23T08:21:39;15.02;;;7.70;;
75814;SDS011;64451;45.574;14.224;2023-02-23T08:23:39;18.55;;;8.05;;
75814;SDS011;64451;45.574;14.224;2023-02-23T08:25:39;17.25;;;8.35;;
75814;SDS011;64451;45.574;14.224;2023-02-23T08:27:40;18.50;;;9.13;;
75814;SDS011;64451;45.574;14.224;2023-02-23T08:29:40;16.40;;;8.07;;
75814;SDS011;64451;45.574;14.224;2023-02-23T08:31:40;18.25;;;8.68;;
75814;SDS011;64451;45.574;14.224;2023-02-23T08:33:41;18.50;;;9.23;;
75814;SDS011;64451;45.574;14.224;2023-02-23T08:35:41;15.65;;;8.10;;
75814;SDS011;64451;45.574;14.224;2023-02-23T08:37:41;17.98;;;8.70;;
75814;SDS011;64451;45.574;14.224;2023-02-23T08:39:41;18.38;;;7.68;;
75814;SDS011;64451;45.574;14.224;2023-02-23T08:41:43;18.02;;;8.55;;
75814;SDS011;64451;45.574;14.224;2023-02-23T08:43:43;16.67;;;8.13;;
75814;SDS011;64451;45.574;14.224;2023-02-23T08:45:43;14.75;;;7.47;;
75814;SDS011;64451;45.574;14.224;2023-02-23T08:47:44;18.20;;;8.40;;
75814;SDS011;64451;45.574;14.224;2023-02-23T08:49:44;19.15;;;8.73;;
75814;SDS011;64451;45.574;14.224;2023-02-23T08:51:44;18.63;;;8.50;;
75814;SDS011;64451;45.574;14.224;2023-02-23T08:53:45;15.95;;;7.93;;
75814;SDS011;64451;45.574;14.224;2023-02-23T08:55:46;16.58;;;8.70;;
75814;SDS011;64451;45.574;14.224;2023-02-23T08:57:46;16.35;;;8.48;;
75814;SDS011;64451;45.574;14.224;2023-02-23T08:59:47;20.35;;;9.00;;
75814;SDS011;64451;45.574;14.224;2023-02-23T09:01:48;15.02;;;8.38;;
75814;SDS011;64451;45.574;14.224;2023-02-23T09:03:51;15.23;;;7.45;;
75814;SDS011;64451;45.574;14.224;2023-02-23T09:06:03;18.92;;;9.63;;
75814;SDS011;64451;45.574;14.224;2023-02-23T09:08:06;20.45;;;9.50;;
75814;SDS011;64451;45.574;14.224;2023-02-23T09:10:07;19.02;;;8.18;;
75814;SDS011;64451;45.574;14.224;2023-02-23T09:12:07;25.38;;;9.73;;
75814;SDS011;64451;45.574;14.224;2023-02-23T09:14:08;18.40;;;9.15;;
75814;SDS011;64451;45.574;14.224;2023-02-23T09:16:08;18.42;;;8.63;;
75814;SDS011;64451;45.574;14.224;2023-02-23T09:18:10;19.33;;;7.50;;
75814;SDS011;64451;45.574;14.224;2023-02-23T09:20:16;20.58;;;9.30;;
75814;SDS011;64451;45.574;14.224;2023-02-23T09:22:17;16.05;;;8.32;;
75814;SDS011;64451;45.574;14.224;2023-02-23T09:24:19;21.98;;;9.18;;
75814;SDS011;64451;45.574;14.224;2023-02-23T09:26:21;19.85;;;9.13;;
75814;SDS011;64451;45.574;14.224;2023-02-23T09:28:22;18.45;;;9.05;;
75814;SDS011;64451;45.574;14.224;2023-02-23T09:30:23;14.75;;;8.40;;
75814;SDS011;64451;45.574;14.224;2023-02-23T09:32:23;17.55;;;7.90;;
75814;SDS011;64451;45.574;14.224;2023-02-23T09:34:23;18.92;;;8.98;;
75814;SDS011;64451;45.574;14.224;2023-02-23T09:36:24;20.45;;;9.38;;
75814;SDS011;64451;45.574;14.224;2023-02-23T09:38:25;17.48;;;8.85;;
75814;SDS011;64451;45.574;14.224;2023-02-23T09:40:26;14.32;;;7.70;;
75814;SDS011;64451;45.574;14.224;2023-02-23T09:42:44;15.63;;;8.98;;
75814;SDS011;64451;45.574;14.224;2023-02-23T09:50:02;20.45;;;8.57;;
75814;SDS011;64451;45.574;14.224;2023-02-23T09:52:05;19.00;;;9.27;;
75814;SDS011;64451;45.574;14.224;2023-02-23T09:54:14;16.98;;;8.45;;
75814;SDS011;64451;45.574;14.224;2023-02-23T09:58:26;19.20;;;8.07;;
75814;SDS011;64451;45.574;14.224;2023-02-23T10:00:29;19.15;;;9.07;;
75814;SDS011;64451;45.574;14.224;2023-02-23T10:02:37;16.80;;;8.07;;
75814;SDS011;64451;45.574;14.224;2023-02-23T10:04:44;20.42;;;8.63;;
75814;SDS011;64451;45.574;14.224;2023-02-23T10:06:49;16.70;;;8.63;;
75814;SDS011;64451;45.574;14.224;2023-02-23T10:13:28;19.85;;;9.43;;
75814;SDS011;64451;45.574;14.224;2023-02-23T10:19:55;17.30;;;8.32;;
75814;SDS011;64451;45.574;14.224;2023-02-23T10:22:03;18.83;;;8.43;;
75814;SDS011;64451;45.574;14.224;2023-02-23T10:26:38;17.13;;;9.00;;
75814;SDS011;64451;45.574;14.224;2023-02-23T10:28:43;19.63;;;8.75;;
75814;SDS011;64451;45.574;14.224;2023-02-23T10:30:44;18.48;;;8.05;;
75814;SDS011;64451;45.574;14.224;2023-02-23T10:35:10;16.92;;;7.50;;
75814;SDS011;64451;45.574;14.224;2023-02-23T10:37:12;15.35;;;7.88;;
75814;SDS011;64451;45.574;14.224;2023-02-23T10:41:15;16.30;;;8.13;;
75814;SDS011;64451;45.574;14.224;2023-02-23T10:43:15;17.48;;;7.55;;
75814;SDS011;64451;45.574;14.224;2023-02-23T10:45:17;18.52;;;8.98;;
75814;SDS011;64451;45.574;14.224;2023-02-23T10:47:23;16.65;;;7.90;;
75814;SDS011;64451;45.574;14.224;2023-02-23T10:49:28;16.33;;;7.82;;
75814;SDS011;64451;45.574;14.224;2023-02-23T10:51:39;15.93;;;7.15;;
75814;SDS011;64451;45.574;14.224;2023-02-23T10:53:42;15.10;;;7.35;;
75814;SDS011;64451;45.574;14.224;2023-02-23T10:55:42;16.40;;;7.05;;
75814;SDS011;64451;45.574;14.224;2023-02-23T10:57:44;15.43;;;7.55;;
75814;SDS011;64451;45.574;14.224;2023-02-23T11:02:22;16.60;;;7.68;;
75814;SDS011;64451;45.574;14.224;2023-02-23T11:04:28;16.63;;;8.13;;
75814;SDS011;64451;45.574;14.224;2023-02-23T11:06:31;14.38;;;7.65;;
75814;SDS011;64451;45.574;14.224;2023-02-23T11:08:35;14.63;;;7.55;;
75814;SDS011;64451;45.574;14.224;2023-02-23T11:10:36;14.73;;;7.22;;
75814;SDS011;64451;45.574;14.224;2023-02-23T11:12:38;13.98;;;7.50;;
75814;SDS011;64451;45.574;14.224;2023-02-23T11:14:42;16.33;;;7.97;;
75814;SDS011;64451;45.574;14.224;2023-02-23T11:16:42;16.33;;;7.88;;
75814;SDS011;64451;45.574;14.224;2023-02-23T11:18:50;17.02;;;8.10;;
75814;SDS011;64451;45.574;14.224;2023-02-23T11:20:53;15.57;;;7.95;;
75814;SDS011;64451;45.574;14.224;2023-02-23T11:22:54;12.35;;;7.05;;
75814;SDS011;64451;45.574;14.224;2023-02-23T11:24:56;13.35;;;6.95;;
75814;SDS011;64451;45.574;14.224;2023-02-23T11:26:58;15.30;;;7.05;;
75814;SDS011;64451;45.574;14.224;2023-02-23T11:31:47;13.95;;;7.00;;
75814;SDS011;64451;45.574;14.224;2023-02-23T11:33:51;15.32;;;7.97;;
75814;SDS011;64451;45.574;14.224;2023-02-23T11:35:58;15.38;;;7.22;;
75814;SDS011;64451;45.574;14.224;2023-02-23T11:37:59;15.23;;;6.90;;
75814;SDS011;64451;45.574;14.224;2023-02-23T11:40:22;14.82;;;6.97;;
75814;SDS011;64451;45.574;14.224;2023-02-23T11:42:31;15.57;;;6.63;;
75814;SDS011;64451;45.574;14.224;2023-02-23T11:44:32;16.90;;;7.50;;
75814;SDS011;64451;45.574;14.224;2023-02-23T11:46:35;14.90;;;7.47;;
75814;SDS011;64451;45.574;14.224;2023-02-23T11:48:41;18.88;;;7.57;;
75814;SDS011;64451;45.574;14.224;2023-02-23T11:50:48;15.25;;;7.38;;
75814;SDS011;64451;45.574;14.224;2023-02-23T11:52:56;14.02;;;6.75;;
75814;SDS011;64451;45.574;14.224;2023-02-23T11:55:02;17.23;;;7.78;;
75814;SDS011;64451;45.574;14.224;2023-02-23T11:57:06;14.50;;;7.30;;
75814;SDS011;64451;45.574;14.224;2023-02-23T11:59:06;17.42;;;8.10;;
75814;SDS011;64451;45.574;14.224;2023-02-23T12:01:19;17.90;;;8.70;;
75814;SDS011;64451;45.574;14.224;2023-02-23T12:03:23;18.02;;;8.05;;
75814;SDS011;64451;45.574;14.224;2023-02-23T12:05:28;21.38;;;8.63;;
75814;SDS011;64451;45.574;14.224;2023-02-23T12:07:37;19.50;;;8.52;;
75814;SDS011;64451;45.574;14.224;2023-02-23T12:09:40;17.27;;;8.13;;
75814;SDS011;64451;45.574;14.224;2023-02-23T12:11:45;14.20;;;7.95;;
75814;SDS011;64451;45.574;14.224;2023-02-23T12:13:59;15.77;;;8.35;;
75814;SDS011;64451;45.574;14.224;2023-02-23T12:16:08;16.77;;;8.95;;
75814;SDS011;64451;45.574;14.224;2023-02-23T12:18:19;23.48;;;9.68;;
75814;SDS011;64451;45.574;14.224;2023-02-23T12:20:41;17.35;;;8.90;;
75814;SDS011;64451;45.574;14.224;2023-02-23T12:22:52;17.60;;;8.93;;
75814;SDS011;64451;45.574;14.224;2023-02-23T12:24:58;16.20;;;8.82;;
75814;SDS011;64451;45.574;14.224;2023-02-23T12:27:08;15.68;;;8.18;;
75814;SDS011;64451;45.574;14.224;2023-02-23T12:29:15;16.63;;;9.00;;
75814;SDS011;64451;45.574;14.224;2023-02-23T12:31:22;19.65;;;8.40;;
75814;SDS011;64451;45.574;14.224;2023-02-23T12:33:33;20.17;;;8.68;;
75814;SDS011;64451;45.574;14.224;2023-02-23T12:38:36;16.35;;;8.32;;
75814;SDS011;64451;45.574;14.224;2023-02-23T12:40:33;15.85;;;7.82;;
75814;SDS011;64451;45.574;14.224;2023-02-23T12:42:39;19.40;;;8.23;;
75814;SDS011;64451;45.574;14.224;2023-02-23T12:44:43;16.70;;;8.05;;
75814;SDS011;64451;45.574;14.224;2023-02-23T12:46:51;17.25;;;8.82;;
75814;SDS011;64451;45.574;14.224;2023-02-23T12:55:34;17.90;;;7.90;;
75814;SDS011;64451;45.574;14.224;2023-02-23T13:02:37;18.40;;;7.63;;
75814;SDS011;64451;45.574;14.224;2023-02-23T13:04:58;13.45;;;6.32;;
75814;SDS011;64451;45.574;14.224;2023-02-23T13:07:23;15.73;;;8.07;;
75814;SDS011;64451;45.574;14.224;2023-02-23T13:16:49;14.32;;;6.50;;
75814;SDS011;64451;45.574;14.224;2023-02-23T13:21:23;15.50;;;7.38;;
75814;SDS011;64451;45.574;14.224;2023-02-23T13:25:49;14.40;;;6.97;;
75814;SDS011;64451;45.574;14.224;2023-02-23T13:28:16;16.23;;;6.15;;
75814;SDS011;64451;45.574;14.224;2023-02-23T13:30:20;12.85;;;6.18;;
75814;SDS011;64451;45.574;14.224;2023-02-23T13:32:22;14.70;;;6.82;;
75814;SDS011;64451;45.574;14.224;2023-02-23T13:34:25;17.52;;;6.28;;
75814;SDS011;64451;45.574;14.224;2023-02-23T13:36:28;14.63;;;6.47;;
75814;SDS011;64451;45.574;14.224;2023-02-23T13:41:26;11.95;;;6.38;;
75814;SDS011;64451;45.574;14.224;2023-02-23T13:49:58;13.55;;;6.35;;
75814;SDS011;64451;45.574;14.224;2023-02-23T13:52:21;17.05;;;6.40;;
75814;SDS011;64451;45.574;14.224;2023-02-23T13:54:32;14.43;;;6.75;;
75814;SDS011;64451;45.574;14.224;2023-02-23T13:56:39;13.95;;;5.97;;
75814;SDS011;64451;45.574;14.224;2023-02-23T13:58:46;13.63;;;6.40;;
75814;SDS011;64451;45.574;14.224;2023-02-23T14:00:53;12.52;;;6.22;;
75814;SDS011;64451;45.574;14.224;2023-02-23T14:03:05;13.75;;;6.97;;
75814;SDS011;64451;45.574;14.224;2023-02-23T14:05:15;14.40;;;6.60;;